sensor_id;sensor_type;location;lat;lon;timestamp;P1;durP1;ratioP1;P2;durP2;ratioP2
44304;SDS011;30019;50.576;8.568;2022-10-16T00:00:33;7.07;;;3.08;;
44304;SDS011;30019;50.576;8.568;2022-10-16T00:03:00;10.93;;;3.58;;
44304;SDS011;30019;50.576;8.568;2022-10-16T00:05:27;8.65;;;4.35;;
44304;SDS011;30019;50.576;8.568;2022-10-16T00:07:52;10.40;;;3.65;;
44304;SDS011;30019;50.576;8.568;2022-10-16T00:10:18;10.73;;;3.67;;
44304;SDS011;30019;50.576;8.568;2022-10-16T00:12:43;9.07;;;4.22;;
44304;SDS011;30019;50.576;8.568;2022-10-16T00:15:09;7.05;;;3.58;;
44304;SDS011;30019;50.576;8.568;2022-10-16T00:17:35;4.97;;;3.33;;
44304;SDS011;30019;50.576;8.568;2022-10-16T00:20:00;7.68;;;2.92;;
44304;SDS011;30019;50.576;8.568;2022-10-16T00:22:26;6.93;;;2.50;;
44304;SDS011;30019;50.576;8.568;2022-10-16T00:24:51;3.85;;;1.85;;
44304;SDS011;30019;50.576;8.568;2022-10-16T00:27:17;1.92;;;1.45;;
44304;SDS011;30019;50.576;8.568;2022-10-16T00:29:42;4.80;;;1.60;;
44304;SDS011;30019;50.576;8.568;2022-10-16T00:32:08;9.20;;;2.12;;
44304;SDS011;30019;50.576;8.568;2022-10-16T00:34:34;4.65;;;1.52;;
44304;SDS011;30019;50.576;8.568;2022-10-16T00:37:00;2.12;;;1.65;;
44304;SDS011;30019;50.576;8.568;2022-10-16T00:39:25;1.87;;;1.75;;
44304;SDS011;30019;50.576;8.568;2022-10-16T00:41:51;8.15;;;1.70;;
44304;SDS011;30019;50.576;8.568;2022-10-16T00:47:21;8.45;;;1.62;;
44304;SDS011;30019;50.576;8.568;2022-10-16T00:52:32;5.65;;;1.70;;
44304;SDS011;30019;50.576;8.568;2022-10-16T00:54:58;8.57;;;1.50;;
44304;SDS011;30019;50.576;8.568;2022-10-16T00:57:26;7.65;;;1.70;;
44304;SDS011;30019;50.576;8.568;2022-10-16T00:59:52;5.72;;;1.30;;
44304;SDS011;30019;50.576;8.568;2022-10-16T01:02:18;9.45;;;1.52;;
44304;SDS011;30019;50.576;8.568;2022-10-16T01:04:45;3.37;;;1.40;;
44304;SDS011;30019;50.576;8.568;2022-10-16T01:07:18;5.78;;;1.33;;
44304;SDS011;30019;50.576;8.568;2022-10-16T01:12:48;4.25;;;1.40;;
44304;SDS011;30019;50.576;8.568;2022-10-16T01:16:05;2.70;;;1.70;;
44304;SDS011;30019;50.576;8.568;2022-10-16T01:18:21;8.53;;;1.90;;
44304;SDS011;30019;50.576;8.568;2022-10-16T01:21:10;5.57;;;1.60;;
44304;SDS011;30019;50.576;8.568;2022-10-16T01:32:09;5.87;;;2.17;;
44304;SDS011;30019;50.576;8.568;2022-10-16T01:34:42;4.20;;;2.95;;
44304;SDS011;30019;50.576;8.568;2022-10-16T01:37:22;8.15;;;3.00;;
44304;SDS011;30019;50.576;8.568;2022-10-16T01:40:00;5.62;;;2.90;;
44304;SDS011;30019;50.576;8.568;2022-10-16T01:42:31;6.25;;;3.55;;
44304;SDS011;30019;50.576;8.568;2022-10-16T01:45:01;6.40;;;2.67;;
44304;SDS011;30019;50.576;8.568;2022-10-16T01:47:31;5.28;;;2.08;;
44304;SDS011;30019;50.576;8.568;2022-10-16T01:49:58;8.70;;;2.25;;
44304;SDS011;30019;50.576;8.568;2022-10-16T01:52:26;9.70;;;1.70;;
44304;SDS011;30019;50.576;8.568;2022-10-16T01:54:54;4.50;;;1.87;;
44304;SDS011;30019;50.576;8.568;2022-10-16T01:57:22;13.55;;;2.22;;
44304;SDS011;30019;50.576;8.568;2022-10-16T01:59:51;5.55;;;2.03;;
44304;SDS011;30019;50.576;8.568;2022-10-16T02:02:21;8.52;;;3.65;;
44304;SDS011;30019;50.576;8.568;2022-10-16T02:04:53;21.12;;;7.28;;
44304;SDS011;30019;50.576;8.568;2022-10-16T02:07:26;12.73;;;6.32;;
44304;SDS011;30019;50.576;8.568;2022-10-16T02:09:52;16.75;;;6.18;;
44304;SDS011;30019;50.576;8.568;2022-10-16T02:12:25;13.73;;;5.95;;
44304;SDS011;30019;50.576;8.568;2022-10-16T02:14:54;11.40;;;3.80;;
44304;SDS011;30019;50.576;8.568;2022-10-16T02:17:20;9.10;;;4.53;;
44304;SDS011;30019;50.576;8.568;2022-10-16T02:19:47;5.32;;;2.95;;
44304;SDS011;30019;50.576;8.568;2022-10-16T02:22:16;8.32;;;3.05;;
44304;SDS011;30019;50.576;8.568;2022-10-16T02:33:31;13.90;;;3.87;;
44304;SDS011;30019;50.576;8.568;2022-10-16T02:35:59;9.05;;;4.57;;
44304;SDS011;30019;50.576;8.568;2022-10-16T02:38:25;7.55;;;3.83;;
44304;SDS011;30019;50.576;8.568;2022-10-16T02:40:51;15.95;;;4.50;;
44304;SDS011;30019;50.576;8.568;2022-10-16T02:43:17;9.93;;;4.80;;
44304;SDS011;30019;50.576;8.568;2022-10-16T02:45:43;9.10;;;4.53;;
44304;SDS011;30019;50.576;8.568;2022-10-16T02:48:09;14.05;;;4.72;;
44304;SDS011;30019;50.576;8.568;2022-10-16T02:50:34;12.68;;;4.53;;
44304;SDS011;30019;50.576;8.568;2022-10-16T02:53:00;14.57;;;5.60;;
44304;SDS011;30019;50.576;8.568;2022-10-16T02:55:26;17.08;;;4.57;;
44304;SDS011;30019;50.576;8.568;2022-10-16T02:57:52;32.05;;;5.55;;
44304;SDS011;30019;50.576;8.568;2022-10-16T03:00:18;14.27;;;5.55;;
44304;SDS011;30019;50.576;8.568;2022-10-16T03:02:45;13.27;;;4.85;;
44304;SDS011;30019;50.576;8.568;2022-10-16T03:05:11;13.68;;;4.55;;
44304;SDS011;30019;50.576;8.568;2022-10-16T03:07:37;14.32;;;3.95;;
44304;SDS011;30019;50.576;8.568;2022-10-16T03:10:03;10.23;;;4.10;;
44304;SDS011;30019;50.576;8.568;2022-10-16T03:12:29;11.05;;;5.20;;
44304;SDS011;30019;50.576;8.568;2022-10-16T03:14:55;15.07;;;6.32;;
44304;SDS011;30019;50.576;8.568;2022-10-16T03:17:21;11.02;;;5.03;;
44304;SDS011;30019;50.576;8.568;2022-10-16T03:19:47;8.48;;;4.30;;
44304;SDS011;30019;50.576;8.568;2022-10-16T03:22:13;9.60;;;3.90;;
44304;SDS011;30019;50.576;8.568;2022-10-16T03:24:39;8.23;;;3.42;;
44304;SDS011;30019;50.576;8.568;2022-10-16T03:27:04;7.20;;;3.58;;
44304;SDS011;30019;50.576;8.568;2022-10-16T03:29:30;9.45;;;3.92;;
44304;SDS011;30019;50.576;8.568;2022-10-16T03:31:57;8.10;;;3.72;;
44304;SDS011;30019;50.576;8.568;2022-10-16T03:34:22;9.25;;;3.55;;
44304;SDS011;30019;50.576;8.568;2022-10-16T03:36:48;6.65;;;3.47;;
44304;SDS011;30019;50.576;8.568;2022-10-16T03:39:13;8.50;;;3.62;;
44304;SDS011;30019;50.576;8.568;2022-10-16T03:41:39;10.13;;;2.70;;
44304;SDS011;30019;50.576;8.568;2022-10-16T03:44:05;10.82;;;3.62;;
44304;SDS011;30019;50.576;8.568;2022-10-16T03:46:30;9.48;;;3.50;;
44304;SDS011;30019;50.576;8.568;2022-10-16T03:48:56;9.93;;;2.80;;
44304;SDS011;30019;50.576;8.568;2022-10-16T03:51:22;9.00;;;3.05;;
44304;SDS011;30019;50.576;8.568;2022-10-16T03:53:47;5.37;;;3.70;;
44304;SDS011;30019;50.576;8.568;2022-10-16T03:56:13;5.30;;;2.87;;
44304;SDS011;30019;50.576;8.568;2022-10-16T03:58:38;9.75;;;3.95;;
44304;SDS011;30019;50.576;8.568;2022-10-16T04:01:04;7.12;;;3.37;;
44304;SDS011;30019;50.576;8.568;2022-10-16T04:03:30;8.93;;;4.22;;
44304;SDS011;30019;50.576;8.568;2022-10-16T04:05:55;7.47;;;3.80;;
44304;SDS011;30019;50.576;8.568;2022-10-16T04:08:21;6.72;;;3.70;;
44304;SDS011;30019;50.576;8.568;2022-10-16T04:10:47;7.85;;;4.00;;
44304;SDS011;30019;50.576;8.568;2022-10-16T04:13:12;8.25;;;3.40;;
44304;SDS011;30019;50.576;8.568;2022-10-16T04:15:38;11.80;;;3.70;;
44304;SDS011;30019;50.576;8.568;2022-10-16T04:18:04;11.02;;;3.22;;
44304;SDS011;30019;50.576;8.568;2022-10-16T04:20:30;7.47;;;3.05;;
44304;SDS011;30019;50.576;8.568;2022-10-16T04:22:56;4.70;;;2.12;;
44304;SDS011;30019;50.576;8.568;2022-10-16T04:25:22;2.30;;;1.05;;
44304;SDS011;30019;50.576;8.568;2022-10-16T04:27:47;5.05;;;0.90;;
44304;SDS011;30019;50.576;8.568;2022-10-16T04:30:13;4.78;;;0.75;;
44304;SDS011;30019;50.576;8.568;2022-10-16T04:32:39;2.92;;;0.73;;
44304;SDS011;30019;50.576;8.568;2022-10-16T04:35:05;2.08;;;1.20;;
44304;SDS011;30019;50.576;8.568;2022-10-16T04:37:31;1.12;;;0.62;;
44304;SDS011;30019;50.576;8.568;2022-10-16T04:39:57;0.88;;;0.68;;
44304;SDS011;30019;50.576;8.568;2022-10-16T04:42:23;1.15;;;0.95;;
44304;SDS011;30019;50.576;8.568;2022-10-16T04:44:48;1.37;;;0.82;;
44304;SDS011;30019;50.576;8.568;2022-10-16T04:47:14;5.87;;;0.80;;
44304;SDS011;30019;50.576;8.568;2022-10-16T04:49:39;4.25;;;0.65;;
44304;SDS011;30019;50.576;8.568;2022-10-16T04:52:05;1.95;;;0.70;;
44304;SDS011;30019;50.576;8.568;2022-10-16T04:54:31;1.20;;;0.60;;
44304;SDS011;30019;50.576;8.568;2022-10-16T04:56:56;0.65;;;0.50;;
44304;SDS011;30019;50.576;8.568;2022-10-16T04:59:22;3.40;;;0.60;;
44304;SDS011;30019;50.576;8.568;2022-10-16T05:01:48;1.37;;;0.65;;
44304;SDS011;30019;50.576;8.568;2022-10-16T05:04:14;1.12;;;0.73;;
44304;SDS011;30019;50.576;8.568;2022-10-16T05:06:40;6.30;;;0.90;;
44304;SDS011;30019;50.576;8.568;2022-10-16T05:09:06;2.55;;;0.70;;
44304;SDS011;30019;50.576;8.568;2022-10-16T05:11:33;2.17;;;0.93;;
44304;SDS011;30019;50.576;8.568;2022-10-16T05:13:59;4.07;;;0.80;;
44304;SDS011;30019;50.576;8.568;2022-10-16T05:16:25;3.40;;;1.08;;
44304;SDS011;30019;50.576;8.568;2022-10-16T05:18:53;1.00;;;1.00;;
44304;SDS011;30019;50.576;8.568;2022-10-16T05:21:19;6.22;;;1.25;;
44304;SDS011;30019;50.576;8.568;2022-10-16T05:23:45;2.40;;;1.02;;
44304;SDS011;30019;50.576;8.568;2022-10-16T05:26:11;3.87;;;1.10;;
44304;SDS011;30019;50.576;8.568;2022-10-16T05:28:36;3.15;;;2.05;;
44304;SDS011;30019;50.576;8.568;2022-10-16T05:31:05;5.47;;;1.00;;
44304;SDS011;30019;50.576;8.568;2022-10-16T05:33:52;4.15;;;1.42;;
44304;SDS011;30019;50.576;8.568;2022-10-16T05:36:26;5.80;;;1.37;;
44304;SDS011;30019;50.576;8.568;2022-10-16T05:38:51;4.75;;;1.27;;
44304;SDS011;30019;50.576;8.568;2022-10-16T05:41:17;3.80;;;1.60;;
44304;SDS011;30019;50.576;8.568;2022-10-16T05:43:46;8.57;;;1.48;;
44304;SDS011;30019;50.576;8.568;2022-10-16T05:46:12;1.58;;;1.48;;
44304;SDS011;30019;50.576;8.568;2022-10-16T05:48:38;13.05;;;2.70;;
44304;SDS011;30019;50.576;8.568;2022-10-16T05:51:05;6.97;;;2.50;;
44304;SDS011;30019;50.576;8.568;2022-10-16T05:53:33;2.97;;;2.10;;
44304;SDS011;30019;50.576;8.568;2022-10-16T05:55:59;3.67;;;2.33;;
44304;SDS011;30019;50.576;8.568;2022-10-16T05:58:28;2.42;;;1.87;;
44304;SDS011;30019;50.576;8.568;2022-10-16T06:00:55;4.62;;;1.60;;
44304;SDS011;30019;50.576;8.568;2022-10-16T06:03:22;7.35;;;1.67;;
44304;SDS011;30019;50.576;8.568;2022-10-16T06:05:48;4.28;;;1.40;;
44304;SDS011;30019;50.576;8.568;2022-10-16T06:08:13;2.65;;;1.37;;
44304;SDS011;30019;50.576;8.568;2022-10-16T06:10:39;2.42;;;1.73;;
44304;SDS011;30019;50.576;8.568;2022-10-16T06:13:04;4.22;;;1.52;;
44304;SDS011;30019;50.576;8.568;2022-10-16T06:15:33;7.62;;;2.25;;
44304;SDS011;30019;50.576;8.568;2022-10-16T06:17:58;8.90;;;1.67;;
44304;SDS011;30019;50.576;8.568;2022-10-16T06:20:24;2.78;;;1.50;;
44304;SDS011;30019;50.576;8.568;2022-10-16T06:22:49;8.38;;;1.77;;
44304;SDS011;30019;50.576;8.568;2022-10-16T06:25:15;2.95;;;2.00;;
44304;SDS011;30019;50.576;8.568;2022-10-16T06:27:40;5.47;;;2.20;;
44304;SDS011;30019;50.576;8.568;2022-10-16T06:30:06;4.03;;;2.15;;
44304;SDS011;30019;50.576;8.568;2022-10-16T06:32:32;6.18;;;2.10;;
44304;SDS011;30019;50.576;8.568;2022-10-16T06:34:58;3.03;;;1.73;;
44304;SDS011;30019;50.576;8.568;2022-10-16T06:37:24;7.28;;;2.17;;
44304;SDS011;30019;50.576;8.568;2022-10-16T06:39:50;6.25;;;2.12;;
44304;SDS011;30019;50.576;8.568;2022-10-16T06:42:17;7.25;;;2.50;;
44304;SDS011;30019;50.576;8.568;2022-10-16T06:44:43;6.57;;;2.97;;
44304;SDS011;30019;50.576;8.568;2022-10-16T06:47:09;3.72;;;2.50;;
44304;SDS011;30019;50.576;8.568;2022-10-16T06:49:35;6.03;;;2.80;;
44304;SDS011;30019;50.576;8.568;2022-10-16T06:52:00;2.67;;;2.20;;
44304;SDS011;30019;50.576;8.568;2022-10-16T06:54:26;5.85;;;2.58;;
44304;SDS011;30019;50.576;8.568;2022-10-16T06:56:52;5.25;;;2.30;;
44304;SDS011;30019;50.576;8.568;2022-10-16T06:59:19;4.97;;;1.90;;
44304;SDS011;30019;50.576;8.568;2022-10-16T07:01:45;6.10;;;3.08;;
44304;SDS011;30019;50.576;8.568;2022-10-16T07:04:11;10.97;;;2.20;;
44304;SDS011;30019;50.576;8.568;2022-10-16T07:06:36;4.37;;;1.95;;
44304;SDS011;30019;50.576;8.568;2022-10-16T07:09:03;3.62;;;1.83;;
44304;SDS011;30019;50.576;8.568;2022-10-16T07:11:31;4.82;;;2.70;;
44304;SDS011;30019;50.576;8.568;2022-10-16T07:13:56;5.47;;;2.53;;
44304;SDS011;30019;50.576;8.568;2022-10-16T07:16:23;4.87;;;2.08;;
44304;SDS011;30019;50.576;8.568;2022-10-16T07:18:50;2.50;;;2.30;;
44304;SDS011;30019;50.576;8.568;2022-10-16T07:21:22;6.40;;;2.00;;
44304;SDS011;30019;50.576;8.568;2022-10-16T07:23:50;4.10;;;2.47;;
44304;SDS011;30019;50.576;8.568;2022-10-16T07:26:17;4.05;;;2.00;;
44304;SDS011;30019;50.576;8.568;2022-10-16T07:28:43;6.65;;;2.65;;
44304;SDS011;30019;50.576;8.568;2022-10-16T07:31:10;2.67;;;2.33;;
44304;SDS011;30019;50.576;8.568;2022-10-16T07:33:37;4.20;;;2.55;;
44304;SDS011;30019;50.576;8.568;2022-10-16T07:36:04;3.30;;;2.50;;
44304;SDS011;30019;50.576;8.568;2022-10-16T07:38:30;5.43;;;3.15;;
44304;SDS011;30019;50.576;8.568;2022-10-16T07:41:05;3.83;;;3.30;;
44304;SDS011;30019;50.576;8.568;2022-10-16T07:43:32;4.65;;;3.67;;
44304;SDS011;30019;50.576;8.568;2022-10-16T07:45:58;12.43;;;3.80;;
44304;SDS011;30019;50.576;8.568;2022-10-16T07:48:27;10.10;;;3.97;;
44304;SDS011;30019;50.576;8.568;2022-10-16T07:50:56;6.78;;;3.30;;
44304;SDS011;30019;50.576;8.568;2022-10-16T07:53:26;7.03;;;3.22;;
44304;SDS011;30019;50.576;8.568;2022-10-16T07:55:52;4.20;;;2.72;;
44304;SDS011;30019;50.576;8.568;2022-10-16T07:58:23;4.22;;;2.55;;
44304;SDS011;30019;50.576;8.568;2022-10-16T08:00:49;5.30;;;2.45;;
44304;SDS011;30019;50.576;8.568;2022-10-16T08:03:14;6.57;;;2.25;;
44304;SDS011;30019;50.576;8.568;2022-10-16T08:05:40;14.80;;;4.07;;
44304;SDS011;30019;50.576;8.568;2022-10-16T08:08:05;5.25;;;2.37;;
44304;SDS011;30019;50.576;8.568;2022-10-16T08:10:31;11.23;;;2.53;;
44304;SDS011;30019;50.576;8.568;2022-10-16T08:12:57;4.45;;;2.42;;
44304;SDS011;30019;50.576;8.568;2022-10-16T08:15:23;6.12;;;2.08;;
44304;SDS011;30019;50.576;8.568;2022-10-16T08:17:56;6.60;;;2.17;;
44304;SDS011;30019;50.576;8.568;2022-10-16T08:20:23;9.77;;;2.47;;
44304;SDS011;30019;50.576;8.568;2022-10-16T08:22:49;4.60;;;2.30;;
44304;SDS011;30019;50.576;8.568;2022-10-16T08:25:15;4.25;;;2.00;;
44304;SDS011;30019;50.576;8.568;2022-10-16T08:27:40;4.70;;;2.20;;
44304;SDS011;30019;50.576;8.568;2022-10-16T08:30:06;5.37;;;2.33;;
44304;SDS011;30019;50.576;8.568;2022-10-16T08:32:32;7.20;;;2.40;;
44304;SDS011;30019;50.576;8.568;2022-10-16T08:34:58;4.63;;;2.00;;
44304;SDS011;30019;50.576;8.568;2022-10-16T08:37:23;3.25;;;1.80;;
44304;SDS011;30019;50.576;8.568;2022-10-16T08:39:49;6.82;;;1.65;;
44304;SDS011;30019;50.576;8.568;2022-10-16T08:50:27;2.60;;;1.55;;
44304;SDS011;30019;50.576;8.568;2022-10-16T08:52:55;3.60;;;1.48;;
44304;SDS011;30019;50.576;8.568;2022-10-16T08:55:37;7.18;;;1.55;;
44304;SDS011;30019;50.576;8.568;2022-10-16T08:58:11;4.03;;;1.50;;
44304;SDS011;30019;50.576;8.568;2022-10-16T09:00:39;2.83;;;1.60;;
44304;SDS011;30019;50.576;8.568;2022-10-16T09:04:17;2.40;;;1.85;;
44304;SDS011;30019;50.576;8.568;2022-10-16T09:20:20;3.33;;;1.50;;
44304;SDS011;30019;50.576;8.568;2022-10-16T09:23:35;3.17;;;1.83;;
44304;SDS011;30019;50.576;8.568;2022-10-16T09:25:44;5.57;;;1.60;;
44304;SDS011;30019;50.576;8.568;2022-10-16T09:28:12;4.20;;;2.05;;
44304;SDS011;30019;50.576;8.568;2022-10-16T09:30:38;5.87;;;1.65;;
44304;SDS011;30019;50.576;8.568;2022-10-16T09:33:04;2.75;;;1.67;;
44304;SDS011;30019;50.576;8.568;2022-10-16T09:35:40;3.42;;;1.50;;
44304;SDS011;30019;50.576;8.568;2022-10-16T09:38:07;7.12;;;2.08;;
44304;SDS011;30019;50.576;8.568;2022-10-16T09:40:37;4.93;;;1.60;;
44304;SDS011;30019;50.576;8.568;2022-10-16T09:45:55;4.90;;;1.67;;
44304;SDS011;30019;50.576;8.568;2022-10-16T09:48:44;2.10;;;1.48;;
44304;SDS011;30019;50.576;8.568;2022-10-16T09:51:25;2.60;;;1.33;;
44304;SDS011;30019;50.576;8.568;2022-10-16T09:56:29;5.80;;;1.58;;
44304;SDS011;30019;50.576;8.568;2022-10-16T09:58:59;3.37;;;1.48;;
44304;SDS011;30019;50.576;8.568;2022-10-16T10:01:46;4.72;;;1.70;;
44304;SDS011;30019;50.576;8.568;2022-10-16T10:04:13;4.03;;;1.83;;
44304;SDS011;30019;50.576;8.568;2022-10-16T10:06:44;1.83;;;1.00;;
44304;SDS011;30019;50.576;8.568;2022-10-16T10:09:21;2.75;;;1.50;;
44304;SDS011;30019;50.576;8.568;2022-10-16T10:12:00;7.15;;;1.75;;
44304;SDS011;30019;50.576;8.568;2022-10-16T10:14:35;2.28;;;1.40;;
44304;SDS011;30019;50.576;8.568;2022-10-16T10:19:36;3.30;;;1.42;;
44304;SDS011;30019;50.576;8.568;2022-10-16T10:27:23;8.48;;;0.90;;
44304;SDS011;30019;50.576;8.568;2022-10-16T10:36:34;14.77;;;1.58;;
44304;SDS011;30019;50.576;8.568;2022-10-16T10:39:12;2.95;;;0.77;;
44304;SDS011;30019;50.576;8.568;2022-10-16T10:52:53;3.20;;;0.60;;
44304;SDS011;30019;50.576;8.568;2022-10-16T10:55:54;3.65;;;0.80;;
44304;SDS011;30019;50.576;8.568;2022-10-16T10:58:48;1.12;;;0.60;;
44304;SDS011;30019;50.576;8.568;2022-10-16T11:02:04;3.90;;;0.60;;
44304;SDS011;30019;50.576;8.568;2022-10-16T11:04:31;3.22;;;0.60;;
44304;SDS011;30019;50.576;8.568;2022-10-16T11:07:28;0.70;;;0.70;;
44304;SDS011;30019;50.576;8.568;2022-10-16T11:10:15;0.80;;;0.80;;
44304;SDS011;30019;50.576;8.568;2022-10-16T11:13:09;2.80;;;0.70;;
44304;SDS011;30019;50.576;8.568;2022-10-16T11:15:42;0.73;;;0.73;;
44304;SDS011;30019;50.576;8.568;2022-10-16T11:18:15;6.65;;;1.95;;
44304;SDS011;30019;50.576;8.568;2022-10-16T11:21:03;3.35;;;0.80;;
44304;SDS011;30019;50.576;8.568;2022-10-16T11:23:48;1.62;;;0.90;;
44304;SDS011;30019;50.576;8.568;2022-10-16T11:26:26;2.40;;;0.98;;
44304;SDS011;30019;50.576;8.568;2022-10-16T11:28:55;2.92;;;0.80;;
44304;SDS011;30019;50.576;8.568;2022-10-16T11:31:24;2.25;;;0.60;;
44304;SDS011;30019;50.576;8.568;2022-10-16T11:39:19;3.75;;;0.90;;
44304;SDS011;30019;50.576;8.568;2022-10-16T11:41:59;1.57;;;0.80;;
44304;SDS011;30019;50.576;8.568;2022-10-16T11:47:52;0.93;;;0.77;;
44304;SDS011;30019;50.576;8.568;2022-10-16T11:50:43;0.68;;;0.50;;
44304;SDS011;30019;50.576;8.568;2022-10-16T11:56:12;0.43;;;0.43;;
44304;SDS011;30019;50.576;8.568;2022-10-16T12:04:42;0.55;;;0.52;;
44304;SDS011;30019;50.576;8.568;2022-10-16T12:07:14;0.40;;;0.40;;
44304;SDS011;30019;50.576;8.568;2022-10-16T12:09:43;1.50;;;0.37;;
44304;SDS011;30019;50.576;8.568;2022-10-16T12:15:00;1.52;;;0.60;;
44304;SDS011;30019;50.576;8.568;2022-10-16T12:17:36;4.37;;;3.87;;
44304;SDS011;30019;50.576;8.568;2022-10-16T12:22:41;2.08;;;0.50;;
44304;SDS011;30019;50.576;8.568;2022-10-16T12:25:19;1.08;;;0.55;;
44304;SDS011;30019;50.576;8.568;2022-10-16T12:27:53;0.35;;;0.35;;
44304;SDS011;30019;50.576;8.568;2022-10-16T12:30:23;0.70;;;0.47;;
44304;SDS011;30019;50.576;8.568;2022-10-16T12:32:55;0.32;;;0.32;;
44304;SDS011;30019;50.576;8.568;2022-10-16T12:35:30;11.52;;;9.35;;
44304;SDS011;30019;50.576;8.568;2022-10-16T12:40:39;2.30;;;0.45;;
44304;SDS011;30019;50.576;8.568;2022-10-16T12:43:40;3.35;;;0.40;;
44304;SDS011;30019;50.576;8.568;2022-10-16T12:48:45;0.98;;;0.70;;
44304;SDS011;30019;50.576;8.568;2022-10-16T12:54:00;2.22;;;0.50;;
44304;SDS011;30019;50.576;8.568;2022-10-16T12:57:45;2.53;;;0.55;;
44304;SDS011;30019;50.576;8.568;2022-10-16T13:00:21;0.50;;;0.50;;
44304;SDS011;30019;50.576;8.568;2022-10-16T13:17:27;1.00;;;0.40;;
44304;SDS011;30019;50.576;8.568;2022-10-16T13:20:13;3.08;;;0.60;;
44304;SDS011;30019;50.576;8.568;2022-10-16T13:25:53;2.08;;;1.92;;
44304;SDS011;30019;50.576;8.568;2022-10-16T13:28:32;6.00;;;0.60;;
44304;SDS011;30019;50.576;8.568;2022-10-16T13:31:00;3.83;;;0.60;;
44304;SDS011;30019;50.576;8.568;2022-10-16T13:33:31;2.30;;;0.50;;
44304;SDS011;30019;50.576;8.568;2022-10-16T13:36:00;3.00;;;0.50;;
44304;SDS011;30019;50.576;8.568;2022-10-16T13:38:30;0.47;;;0.40;;
44304;SDS011;30019;50.576;8.568;2022-10-16T13:43:28;0.93;;;0.40;;
44304;SDS011;30019;50.576;8.568;2022-10-16T13:46:03;0.55;;;0.50;;
44304;SDS011;30019;50.576;8.568;2022-10-16T13:48:31;1.50;;;0.60;;
44304;SDS011;30019;50.576;8.568;2022-10-16T13:50:59;0.40;;;0.40;;
44304;SDS011;30019;50.576;8.568;2022-10-16T13:53:26;2.08;;;0.60;;
44304;SDS011;30019;50.576;8.568;2022-10-16T13:55:51;2.47;;;0.60;;
44304;SDS011;30019;50.576;8.568;2022-10-16T13:58:17;1.75;;;0.68;;
44304;SDS011;30019;50.576;8.568;2022-10-16T14:00:56;2.12;;;0.95;;
44304;SDS011;30019;50.576;8.568;2022-10-16T14:03:24;0.68;;;0.60;;
44304;SDS011;30019;50.576;8.568;2022-10-16T14:05:55;2.75;;;0.60;;
44304;SDS011;30019;50.576;8.568;2022-10-16T14:08:26;1.75;;;0.52;;
44304;SDS011;30019;50.576;8.568;2022-10-16T14:10:54;2.03;;;1.10;;
44304;SDS011;30019;50.576;8.568;2022-10-16T14:13:25;0.77;;;0.65;;
44304;SDS011;30019;50.576;8.568;2022-10-16T14:15:55;2.67;;;0.90;;
44304;SDS011;30019;50.576;8.568;2022-10-16T14:18:24;0.90;;;0.90;;
44304;SDS011;30019;50.576;8.568;2022-10-16T14:20:52;4.03;;;1.10;;
44304;SDS011;30019;50.576;8.568;2022-10-16T14:23:22;2.47;;;0.82;;
44304;SDS011;30019;50.576;8.568;2022-10-16T14:25:52;2.50;;;1.02;;
44304;SDS011;30019;50.576;8.568;2022-10-16T14:28:20;2.03;;;1.17;;
44304;SDS011;30019;50.576;8.568;2022-10-16T14:30:54;4.45;;;1.00;;
44304;SDS011;30019;50.576;8.568;2022-10-16T14:33:30;2.30;;;0.70;;
44304;SDS011;30019;50.576;8.568;2022-10-16T14:36:05;3.25;;;0.80;;
44304;SDS011;30019;50.576;8.568;2022-10-16T14:38:35;6.87;;;0.60;;
44304;SDS011;30019;50.576;8.568;2022-10-16T14:41:03;0.73;;;0.60;;
44304;SDS011;30019;50.576;8.568;2022-10-16T14:46:03;2.42;;;1.00;;
44304;SDS011;30019;50.576;8.568;2022-10-16T14:48:32;1.05;;;0.70;;
44304;SDS011;30019;50.576;8.568;2022-10-16T14:50:58;0.75;;;0.60;;
44304;SDS011;30019;50.576;8.568;2022-10-16T14:53:24;2.05;;;1.00;;
44304;SDS011;30019;50.576;8.568;2022-10-16T14:55:49;0.85;;;0.70;;
44304;SDS011;30019;50.576;8.568;2022-10-16T14:58:21;5.18;;;1.25;;
44304;SDS011;30019;50.576;8.568;2022-10-16T15:00:48;1.65;;;0.50;;
44304;SDS011;30019;50.576;8.568;2022-10-16T15:03:17;0.95;;;0.88;;
44304;SDS011;30019;50.576;8.568;2022-10-16T15:05:42;1.62;;;0.50;;
44304;SDS011;30019;50.576;8.568;2022-10-16T15:08:08;1.75;;;0.75;;
44304;SDS011;30019;50.576;8.568;2022-10-16T15:10:35;2.85;;;1.23;;
44304;SDS011;30019;50.576;8.568;2022-10-16T15:13:05;2.92;;;0.70;;
44304;SDS011;30019;50.576;8.568;2022-10-16T15:15:35;2.37;;;0.85;;
44304;SDS011;30019;50.576;8.568;2022-10-16T15:18:03;2.53;;;0.88;;
44304;SDS011;30019;50.576;8.568;2022-10-16T15:20:30;12.35;;;5.60;;
44304;SDS011;30019;50.576;8.568;2022-10-16T15:22:59;8.43;;;5.37;;
44304;SDS011;30019;50.576;8.568;2022-10-16T15:27:58;3.08;;;1.35;;
44304;SDS011;30019;50.576;8.568;2022-10-16T15:30:25;1.95;;;1.02;;
44304;SDS011;30019;50.576;8.568;2022-10-16T15:32:51;2.03;;;1.25;;
44304;SDS011;30019;50.576;8.568;2022-10-16T15:35:16;1.45;;;0.80;;
44304;SDS011;30019;50.576;8.568;2022-10-16T15:37:42;3.50;;;1.02;;
44304;SDS011;30019;50.576;8.568;2022-10-16T15:40:08;1.27;;;0.70;;
44304;SDS011;30019;50.576;8.568;2022-10-16T15:42:35;5.85;;;0.70;;
44304;SDS011;30019;50.576;8.568;2022-10-16T15:45:00;2.83;;;0.80;;
44304;SDS011;30019;50.576;8.568;2022-10-16T15:47:36;3.55;;;0.70;;
44304;SDS011;30019;50.576;8.568;2022-10-16T15:50:02;0.93;;;0.70;;
44304;SDS011;30019;50.576;8.568;2022-10-16T15:52:29;3.50;;;0.82;;
44304;SDS011;30019;50.576;8.568;2022-10-16T15:54:56;0.75;;;0.70;;
44304;SDS011;30019;50.576;8.568;2022-10-16T15:57:22;1.95;;;0.80;;
44304;SDS011;30019;50.576;8.568;2022-10-16T15:59:48;2.67;;;0.80;;
44304;SDS011;30019;50.576;8.568;2022-10-16T16:02:14;4.43;;;0.80;;
44304;SDS011;30019;50.576;8.568;2022-10-16T16:04:40;3.80;;;0.80;;
44304;SDS011;30019;50.576;8.568;2022-10-16T16:07:06;2.65;;;0.80;;
44304;SDS011;30019;50.576;8.568;2022-10-16T16:09:34;3.17;;;0.95;;
44304;SDS011;30019;50.576;8.568;2022-10-16T16:12:00;5.00;;;1.10;;
44304;SDS011;30019;50.576;8.568;2022-10-16T16:14:26;1.92;;;1.20;;
44304;SDS011;30019;50.576;8.568;2022-10-16T16:16:53;0.80;;;0.80;;
44304;SDS011;30019;50.576;8.568;2022-10-16T16:19:19;10.43;;;1.92;;
44304;SDS011;30019;50.576;8.568;2022-10-16T16:21:46;3.25;;;1.40;;
44304;SDS011;30019;50.576;8.568;2022-10-16T16:24:12;2.55;;;1.42;;
44304;SDS011;30019;50.576;8.568;2022-10-16T16:26:37;1.60;;;1.25;;
44304;SDS011;30019;50.576;8.568;2022-10-16T16:29:05;5.50;;;1.75;;
44304;SDS011;30019;50.576;8.568;2022-10-16T16:31:31;1.90;;;1.73;;
44304;SDS011;30019;50.576;8.568;2022-10-16T16:33:58;3.92;;;1.77;;
44304;SDS011;30019;50.576;8.568;2022-10-16T16:36:24;4.87;;;1.70;;
44304;SDS011;30019;50.576;8.568;2022-10-16T16:38:50;2.15;;;1.67;;
44304;SDS011;30019;50.576;8.568;2022-10-16T16:43:46;4.55;;;2.03;;
44304;SDS011;30019;50.576;8.568;2022-10-16T16:46:12;5.07;;;1.77;;
44304;SDS011;30019;50.576;8.568;2022-10-16T16:48:39;1.85;;;1.75;;
44304;SDS011;30019;50.576;8.568;2022-10-16T16:51:09;2.25;;;1.65;;
44304;SDS011;30019;50.576;8.568;2022-10-16T16:53:41;4.62;;;1.80;;
44304;SDS011;30019;50.576;8.568;2022-10-16T16:56:07;3.72;;;1.80;;
44304;SDS011;30019;50.576;8.568;2022-10-16T16:58:33;3.78;;;1.60;;
44304;SDS011;30019;50.576;8.568;2022-10-16T17:00:59;2.65;;;1.77;;
44304;SDS011;30019;50.576;8.568;2022-10-16T17:03:27;2.20;;;1.83;;
44304;SDS011;30019;50.576;8.568;2022-10-16T17:06:01;7.97;;;1.95;;
44304;SDS011;30019;50.576;8.568;2022-10-16T17:08:28;2.03;;;1.60;;
44304;SDS011;30019;50.576;8.568;2022-10-16T17:10:55;1.73;;;1.50;;
44304;SDS011;30019;50.576;8.568;2022-10-16T17:13:25;2.37;;;1.98;;
44304;SDS011;30019;50.576;8.568;2022-10-16T17:15:52;4.65;;;2.25;;